sensor_id;sensor_type;location;lat;lon;timestamp;pressure;altitude;pressure_sealevel;temperature;humidity
11448;BME280;43755;49.736;8.734;2022-08-19T00:01:41;97508.31;;;18.76;100.00
11448;BME280;43755;49.736;8.734;2022-08-19T00:03:44;97516.25;;;18.77;100.00
11448;BME280;43755;49.736;8.734;2022-08-19T00:05:45;97513.28;;;18.80;100.00
11448;BME280;43755;49.736;8.734;2022-08-19T00:07:48;97516.72;;;18.83;100.00
11448;BME280;43755;49.736;8.734;2022-08-19T00:09:50;97509.53;;;18.83;100.00
11448;BME280;43755;49.736;8.734;2022-08-19T00:11:52;97508.41;;;18.86;100.00
11448;BME280;43755;49.736;8.734;2022-08-19T00:13:56;97506.31;;;18.89;100.00
11448;BME280;43755;49.736;8.734;2022-08-19T00:15:57;97502.41;;;18.93;100.00
11448;BME280;43755;49.736;8.734;2022-08-19T00:17:59;97497.78;;;18.95;100.00
11448;BME280;43755;49.736;8.734;2022-08-19T00:20:03;97490.44;;;18.97;100.00
11448;BME280;43755;49.736;8.734;2022-08-19T00:22:04;97487.16;;;18.94;100.00
11448;BME280;43755;49.736;8.734;2022-08-19T00:24:07;97483.63;;;18.93;100.00
11448;BME280;43755;49.736;8.734;2022-08-19T00:26:09;97482.09;;;18.91;100.00
11448;BME280;43755;49.736;8.734;2022-08-19T00:28:10;97476.84;;;18.89;100.00
11448;BME280;43755;49.736;8.734;2022-08-19T00:30:12;97475.25;;;18.87;100.00
11448;BME280;43755;49.736;8.734;2022-08-19T00:32:13;97470.03;;;18.85;100.00
11448;BME280;43755;49.736;8.734;2022-08-19T00:34:15;97466.53;;;18.85;100.00
11448;BME280;43755;49.736;8.734;2022-08-19T00:36:18;97461.97;;;18.85;100.00
11448;BME280;43755;49.736;8.734;2022-08-19T00:38:19;97456.03;;;18.81;100.00
11448;BME280;43755;49.736;8.734;2022-08-19T00:40:22;97450.09;;;18.78;100.00
11448;BME280;43755;49.736;8.734;2022-08-19T00:42:25;97448.78;;;18.72;100.00
11448;BME280;43755;49.736;8.734;2022-08-19T00:44:29;97452.56;;;18.70;100.00
11448;BME280;43755;49.736;8.734;2022-08-19T00:46:33;97443.81;;;18.68;100.00
11448;BME280;43755;49.736;8.734;2022-08-19T00:48:36;97438.72;;;18.65;100.00
11448;BME280;43755;49.736;8.734;2022-08-19T00:50:39;97436.03;;;18.65;100.00
11448;BME280;43755;49.736;8.734;2022-08-19T00:52:46;97435.06;;;18.66;100.00
11448;BME280;43755;49.736;8.734;2022-08-19T00:54:48;97438.25;;;18.60;100.00
11448;BME280;43755;49.736;8.734;2022-08-19T00:56:50;97450.06;;;18.57;100.00
11448;BME280;43755;49.736;8.734;2022-08-19T00:58:54;97447.72;;;18.64;100.00
11448;BME280;43755;49.736;8.734;2022-08-19T01:00:57;97462.94;;;18.63;100.00
11448;BME280;43755;49.736;8.734;2022-08-19T01:02:59;97457.47;;;18.65;100.00
11448;BME280;43755;49.736;8.734;2022-08-19T01:05:02;97458.66;;;18.72;100.00
11448;BME280;43755;49.736;8.734;2022-08-19T01:07:04;97458.50;;;18.73;100.00
11448;BME280;43755;49.736;8.734;2022-08-19T01:09:08;97455.47;;;18.78;100.00
11448;BME280;43755;49.736;8.734;2022-08-19T01:11:10;97456.44;;;18.77;100.00
11448;BME280;43755;49.736;8.734;2022-08-19T01:13:14;97463.22;;;18.81;100.00
11448;BME280;43755;49.736;8.734;2022-08-19T01:15:19;97462.72;;;18.87;100.00
11448;BME280;43755;49.736;8.734;2022-08-19T01:17:21;97458.94;;;18.90;100.00
11448;BME280;43755;49.736;8.734;2022-08-19T01:19:27;97458.41;;;18.96;100.00
11448;BME280;43755;49.736;8.734;2022-08-19T01:21:37;97446.56;;;18.98;100.00
11448;BME280;43755;49.736;8.734;2022-08-19T01:23:44;97442.78;;;19.01;100.00
11448;BME280;43755;49.736;8.734;2022-08-19T01:25:49;97441.94;;;19.00;100.00
11448;BME280;43755;49.736;8.734;2022-08-19T01:27:51;97445.88;;;18.96;100.00
11448;BME280;43755;49.736;8.734;2022-08-19T01:29:53;97446.31;;;19.01;100.00
11448;BME280;43755;49.736;8.734;2022-08-19T01:31:54;97453.38;;;19.02;100.00
11448;BME280;43755;49.736;8.734;2022-08-19T01:33:57;97457.94;;;19.11;100.00
11448;BME280;43755;49.736;8.734;2022-08-19T01:36:05;97464.63;;;19.17;100.00
11448;BME280;43755;49.736;8.734;2022-08-19T01:38:09;97462.91;;;19.16;100.00
11448;BME280;43755;49.736;8.734;2022-08-19T01:40:12;97464.50;;;19.18;100.00
11448;BME280;43755;49.736;8.734;2022-08-19T01:42:13;97459.53;;;19.14;100.00
11448;BME280;43755;49.736;8.734;2022-08-19T01:44:16;97463.00;;;19.26;100.00
11448;BME280;43755;49.736;8.734;2022-08-19T01:46:20;97464.81;;;19.25;100.00
11448;BME280;43755;49.736;8.734;2022-08-19T01:48:21;97462.84;;;19.27;100.00
11448;BME280;43755;49.736;8.734;2022-08-19T01:50:24;97471.03;;;19.26;100.00
11448;BME280;43755;49.736;8.734;2022-08-19T01:52:25;97466.19;;;19.19;100.00
11448;BME280;43755;49.736;8.734;2022-08-19T01:54:27;97475.66;;;19.23;100.00
11448;BME280;43755;49.736;8.734;2022-08-19T01:56:30;97473.84;;;19.24;100.00
11448;BME280;43755;49.736;8.734;2022-08-19T01:58:35;97470.31;;;19.23;100.00
11448;BME280;43755;49.736;8.734;2022-08-19T02:00:38;97475.38;;;19.27;100.00
11448;BME280;43755;49.736;8.734;2022-08-19T02:02:40;97481.03;;;19.23;100.00
11448;BME280;43755;49.736;8.734;2022-08-19T02:04:41;97485.53;;;19.23;100.00
11448;BME280;43755;49.736;8.734;2022-08-19T02:06:43;97481.03;;;19.23;100.00
11448;BME280;43755;49.736;8.734;2022-08-19T02:08:44;97475.78;;;19.22;100.00
11448;BME280;43755;49.736;8.734;2022-08-19T02:10:47;97480.31;;;19.21;100.00
11448;BME280;43755;49.736;8.734;2022-08-19T02:12:51;97481.03;;;19.23;100.00
11448;BME280;43755;49.736;8.734;2022-08-19T02:14:52;97479.19;;;19.24;100.00
11448;BME280;43755;49.736;8.734;2022-08-19T02:16:54;97491.75;;;19.23;100.00
11448;BME280;43755;49.736;8.734;2022-08-19T02:18:55;97493.34;;;19.26;100.00
11448;BME280;43755;49.736;8.734;2022-08-19T02:20:57;97493.34;;;19.26;100.00
11448;BME280;43755;49.736;8.734;2022-08-19T02:22:58;97489.66;;;19.27;100.00
11448;BME280;43755;49.736;8.734;2022-08-19T02:25:01;97495.88;;;19.28;100.00
11448;BME280;43755;49.736;8.734;2022-08-19T02:27:05;97478.91;;;19.27;100.00
11448;BME280;43755;49.736;8.734;2022-08-19T02:29:07;97486.84;;;19.29;100.00
11448;BME280;43755;49.736;8.734;2022-08-19T02:31:10;97478.81;;;19.29;100.00
11448;BME280;43755;49.736;8.734;2022-08-19T02:33:12;97476.97;;;19.29;100.00
11448;BME280;43755;49.736;8.734;2022-08-19T02:35:15;97464.66;;;19.27;100.00
11448;BME280;43755;49.736;8.734;2022-08-19T02:37:16;97466.78;;;19.23;100.00
11448;BME280;43755;49.736;8.734;2022-08-19T02:39:31;97469.84;;;19.18;100.00
11448;BME280;43755;49.736;8.734;2022-08-19T02:41:34;97469.25;;;19.15;100.00
11448;BME280;43755;49.736;8.734;2022-08-19T02:43:35;97469.41;;;19.13;100.00
11448;BME280;43755;49.736;8.734;2022-08-19T02:45:40;97469.66;;;19.10;100.00
11448;BME280;43755;49.736;8.734;2022-08-19T02:47:41;97473.31;;;19.09;100.00
11448;BME280;43755;49.736;8.734;2022-08-19T02:49:43;97477.50;;;19.02;100.00
11448;BME280;43755;49.736;8.734;2022-08-19T02:51:45;97471.41;;;19.00;100.00
11448;BME280;43755;49.736;8.734;2022-08-19T02:53:47;97467.03;;;18.99;100.00
11448;BME280;43755;49.736;8.734;2022-08-19T02:55:50;97465.31;;;18.98;100.00
11448;BME280;43755;49.736;8.734;2022-08-19T02:57:52;97476.31;;;18.95;100.00
11448;BME280;43755;49.736;8.734;2022-08-19T02:59:54;97469.66;;;18.90;100.00
11448;BME280;43755;49.736;8.734;2022-08-19T03:01:56;97479.75;;;18.86;100.00
11448;BME280;43755;49.736;8.734;2022-08-19T03:04:02;97479.31;;;18.81;100.00
11448;BME280;43755;49.736;8.734;2022-08-19T03:06:09;97488.59;;;18.77;100.00
11448;BME280;43755;49.736;8.734;2022-08-19T03:08:12;97482.91;;;18.70;100.00
11448;BME280;43755;49.736;8.734;2022-08-19T03:10:13;97480.84;;;18.63;100.00
11448;BME280;43755;49.736;8.734;2022-08-19T03:12:15;97486.47;;;18.60;100.00
11448;BME280;43755;49.736;8.734;2022-08-19T03:14:17;97482.69;;;18.51;100.00
11448;BME280;43755;49.736;8.734;2022-08-19T03:16:20;97486.59;;;18.47;100.00
11448;BME280;43755;49.736;8.734;2022-08-19T03:18:23;97493.06;;;18.45;100.00
11448;BME280;43755;49.736;8.734;2022-08-19T03:20:25;97485.28;;;18.41;100.00
11448;BME280;43755;49.736;8.734;2022-08-19T03:22:26;97475.94;;;18.36;100.00
11448;BME280;43755;49.736;8.734;2022-08-19T03:24:29;97475.31;;;18.32;100.00
11448;BME280;43755;49.736;8.734;2022-08-19T03:26:31;97469.38;;;18.29;100.00
11448;BME280;43755;49.736;8.734;2022-08-19T03:28:32;97473.88;;;18.28;100.00
11448;BME280;43755;49.736;8.734;2022-08-19T03:30:34;97472.91;;;18.29;100.00
11448;BME280;43755;49.736;8.734;2022-08-19T03:32:35;97473.88;;;18.28;100.00
11448;BME280;43755;49.736;8.734;2022-08-19T03:34:38;97470.34;;;18.28;100.00
11448;BME280;43755;49.736;8.734;2022-08-19T03:36:40;97484.47;;;18.30;100.00
11448;BME280;43755;49.736;8.734;2022-08-19T03:38:44;97484.34;;;18.31;100.00
11448;BME280;43755;49.736;8.734;2022-08-19T03:40:46;97478.25;;;18.29;100.00
11448;BME280;43755;49.736;8.734;2022-08-19T03:42:47;97478.13;;;18.31;100.00
11448;BME280;43755;49.736;8.734;2022-08-19T03:44:49;97480.94;;;18.29;100.00
11448;BME280;43755;49.736;8.734;2022-08-19T03:46:53;97476.66;;;18.27;100.00
11448;BME280;43755;49.736;8.734;2022-08-19T03:48:57;97475.22;;;18.23;100.00
11448;BME280;43755;49.736;8.734;2022-08-19T03:51:01;97487.91;;;18.10;100.00
11448;BME280;43755;49.736;8.734;2022-08-19T03:53:03;97486.09;;;17.99;100.00
11448;BME280;43755;49.736;8.734;2022-08-19T03:55:05;97484.53;;;17.96;100.00
11448;BME280;43755;49.736;8.734;2022-08-19T03:57:07;97489.28;;;17.93;100.00
11448;BME280;43755;49.736;8.734;2022-08-19T03:59:11;97489.28;;;17.93;100.00
11448;BME280;43755;49.736;8.734;2022-08-19T04:01:16;97488.41;;;17.92;100.00
11448;BME280;43755;49.736;8.734;2022-08-19T04:03:17;97498.25;;;17.92;100.00
11448;BME280;43755;49.736;8.734;2022-08-19T04:05:19;97502.91;;;17.90;100.00
11448;BME280;43755;49.736;8.734;2022-08-19T04:07:22;97501.69;;;17.94;100.00
11448;BME280;43755;49.736;8.734;2022-08-19T04:09:24;97508.97;;;17.92;100.00
11448;BME280;43755;49.736;8.734;2022-08-19T04:11:28;97499.59;;;17.97;100.00
11448;BME280;43755;49.736;8.734;2022-08-19T04:13:31;97507.88;;;18.06;100.00
11448;BME280;43755;49.736;8.734;2022-08-19T04:15:32;97503.00;;;18.11;100.00
11448;BME280;43755;49.736;8.734;2022-08-19T04:17:39;97494.47;;;18.17;100.00
11448;BME280;43755;49.736;8.734;2022-08-19T04:19:41;97498.72;;;18.19;100.00
11448;BME280;43755;49.736;8.734;2022-08-19T04:21:44;97499.59;;;18.20;100.00
11448;BME280;43755;49.736;8.734;2022-08-19T04:23:48;97507.13;;;18.26;100.00
11448;BME280;43755;49.736;8.734;2022-08-19T04:25:49;97504.06;;;18.30;100.00
11448;BME280;43755;49.736;8.734;2022-08-19T04:27:51;97504.06;;;18.30;100.00
11448;BME280;43755;49.736;8.734;2022-08-19T04:29:52;97505.16;;;18.28;100.00
11448;BME280;43755;49.736;8.734;2022-08-19T04:31:56;97500.41;;;18.31;100.00
11448;BME280;43755;49.736;8.734;2022-08-19T04:33:59;97497.00;;;18.29;100.00
11448;BME280;43755;49.736;8.734;2022-08-19T04:36:03;97496.72;;;18.32;100.00
11448;BME280;43755;49.736;8.734;2022-08-19T04:38:04;97496.38;;;18.37;100.00
11448;BME280;43755;49.736;8.734;2022-08-19T04:40:08;97498.91;;;18.38;100.00
11448;BME280;43755;49.736;8.734;2022-08-19T04:42:28;97496.22;;;18.38;100.00
11448;BME280;43755;49.736;8.734;2022-08-19T04:44:41;97508.53;;;18.41;100.00
11448;BME280;43755;49.736;8.734;2022-08-19T04:46:43;97511.56;;;18.48;100.00
11448;BME280;43755;49.736;8.734;2022-08-19T04:48:44;97516.81;;;18.49;100.00
11448;BME280;43755;49.736;8.734;2022-08-19T04:50:46;97508.38;;;18.54;100.00
11448;BME280;43755;49.736;8.734;2022-08-19T04:52:50;97500.72;;;18.60;100.00
11448;BME280;43755;49.736;8.734;2022-08-19T04:54:51;97495.38;;;18.60;100.00
11448;BME280;43755;49.736;8.734;2022-08-19T04:56:55;97503.88;;;18.65;100.00
11448;BME280;43755;49.736;8.734;2022-08-19T04:58:56;97498.97;;;18.70;100.00
11448;BME280;43755;49.736;8.734;2022-08-19T05:00:58;97495.03;;;18.74;100.00
11448;BME280;43755;49.736;8.734;2022-08-19T05:03:01;97500.88;;;18.79;100.00
11448;BME280;43755;49.736;8.734;2022-08-19T05:05:03;97500.50;;;18.84;100.00
11448;BME280;43755;49.736;8.734;2022-08-19T05:07:07;97493.91;;;18.88;100.00
11448;BME280;43755;49.736;8.734;2022-08-19T05:09:09;97500.69;;;18.92;100.00
11448;BME280;43755;49.736;8.734;2022-08-19T05:11:12;97500.69;;;18.92;100.00
11448;BME280;43755;49.736;8.734;2022-08-19T05:13:17;97506.31;;;18.89;100.00
11448;BME280;43755;49.736;8.734;2022-08-19T05:15:20;97502.91;;;18.87;100.00
11448;BME280;43755;49.736;8.734;2022-08-19T05:17:22;97507.31;;;18.88;100.00
11448;BME280;43755;49.736;8.734;2022-08-19T05:19:23;97513.50;;;18.89;100.00
11448;BME280;43755;49.736;8.734;2022-08-19T05:21:43;97503.25;;;18.94;100.00
11448;BME280;43755;49.736;8.734;2022-08-19T05:24:03;97508.22;;;18.98;100.00
11448;BME280;43755;49.736;8.734;2022-08-19T05:26:08;97515.63;;;19.06;100.00
11448;BME280;43755;49.736;8.734;2022-08-19T05:28:11;97512.41;;;19.12;100.00
11448;BME280;43755;49.736;8.734;2022-08-19T05:30:14;97514.59;;;19.18;100.00
11448;BME280;43755;49.736;8.734;2022-08-19T05:32:16;97520.69;;;19.20;100.00
11448;BME280;43755;49.736;8.734;2022-08-19T05:34:19;97513.22;;;19.23;100.00
11448;BME280;43755;49.736;8.734;2022-08-19T05:36:21;97517.19;;;19.29;100.00
11448;BME280;43755;49.736;8.734;2022-08-19T05:38:23;97518.50;;;19.35;100.00
11448;BME280;43755;49.736;8.734;2022-08-19T05:40:26;97509.94;;;19.41;100.00
11448;BME280;43755;49.736;8.734;2022-08-19T05:42:28;97518.72;;;19.43;100.00
11448;BME280;43755;49.736;8.734;2022-08-19T05:44:31;97514.81;;;19.47;100.00
11448;BME280;43755;49.736;8.734;2022-08-19T05:46:35;97525.72;;;19.55;100.00
11448;BME280;43755;49.736;8.734;2022-08-19T05:48:37;97535.31;;;19.57;100.00
11448;BME280;43755;49.736;8.734;2022-08-19T05:50:40;97526.59;;;19.55;100.00
11448;BME280;43755;49.736;8.734;2022-08-19T05:52:42;97529.56;;;19.62;100.00
11448;BME280;43755;49.736;8.734;2022-08-19T05:54:43;97531.13;;;19.65;100.00
11448;BME280;43755;49.736;8.734;2022-08-19T05:56:47;97531.88;;;19.67;100.00
11448;BME280;43755;49.736;8.734;2022-08-19T05:58:49;97539.97;;;19.76;100.00
11448;BME280;43755;49.736;8.734;2022-08-19T06:00:50;97545.22;;;19.87;100.00
11448;BME280;43755;49.736;8.734;2022-08-19T06:02:56;97551.38;;;19.99;100.00
11448;BME280;43755;49.736;8.734;2022-08-19T06:05:04;97553.78;;;20.02;100.00
11448;BME280;43755;49.736;8.734;2022-08-19T06:07:09;97557.78;;;20.08;100.00
11448;BME280;43755;49.736;8.734;2022-08-19T06:09:10;97567.22;;;20.02;100.00
11448;BME280;43755;49.736;8.734;2022-08-19T06:11:17;97560.03;;;20.02;100.00
11448;BME280;43755;49.736;8.734;2022-08-19T06:13:19;97561.16;;;20.10;100.00
11448;BME280;43755;49.736;8.734;2022-08-19T06:15:20;97566.84;;;20.16;100.00
11448;BME280;43755;49.736;8.734;2022-08-19T06:17:23;97570.28;;;20.28;100.00
11448;BME280;43755;49.736;8.734;2022-08-19T06:19:29;97574.94;;;20.26;100.00
11448;BME280;43755;49.736;8.734;2022-08-19T06:21:30;97570.34;;;20.37;100.00
11448;BME280;43755;49.736;8.734;2022-08-19T06:23:33;97573.19;;;20.46;100.00
11448;BME280;43755;49.736;8.734;2022-08-19T06:25:35;97582.53;;;20.41;100.00
11448;BME280;43755;49.736;8.734;2022-08-19T06:27:37;97586.38;;;20.49;100.00
11448;BME280;43755;49.736;8.734;2022-08-19T06:29:38;97584.69;;;20.57;100.00
11448;BME280;43755;49.736;8.734;2022-08-19T06:31:41;97587.22;;;20.59;100.00
11448;BME280;43755;49.736;8.734;2022-08-19T06:33:44;97582.41;;;20.62;100.00
11448;BME280;43755;49.736;8.734;2022-08-19T06:35:47;97583.81;;;20.47;100.00
11448;BME280;43755;49.736;8.734;2022-08-19T06:37:49;97588.22;;;20.58;100.00
11448;BME280;43755;49.736;8.734;2022-08-19T06:39:50;97592.84;;;20.46;100.00
11448;BME280;43755;49.736;8.734;2022-08-19T06:41:54;97604.22;;;20.59;100.00
11448;BME280;43755;49.736;8.734;2022-08-19T06:43:56;97607.63;;;20.71;100.00
11448;BME280;43755;49.736;8.734;2022-08-19T06:45:57;97607.47;;;20.63;100.00
11448;BME280;43755;49.736;8.734;2022-08-19T06:48:01;97607.63;;;20.61;100.00
11448;BME280;43755;49.736;8.734;2022-08-19T06:50:03;97616.13;;;20.66;100.00
11448;BME280;43755;49.736;8.734;2022-08-19T06:52:06;97611.13;;;20.62;100.00
11448;BME280;43755;49.736;8.734;2022-08-19T06:54:08;97616.63;;;20.51;100.00
11448;BME280;43755;49.736;8.734;2022-08-19T06:56:09;97622.94;;;20.40;100.00
11448;BME280;43755;49.736;8.734;2022-08-19T06:58:11;97615.69;;;20.31;100.00
11448;BME280;43755;49.736;8.734;2022-08-19T07:00:13;97623.00;;;20.29;100.00
11448;BME280;43755;49.736;8.734;2022-08-19T07:02:14;97626.91;;;20.36;100.00
11448;BME280;43755;49.736;8.734;2022-08-19T07:04:19;97631.84;;;20.40;100.00
11448;BME280;43755;49.736;8.734;2022-08-19T07:06:20;97627.34;;;20.41;100.00
11448;BME280;43755;49.736;8.734;2022-08-19T07:08:23;97625.41;;;20.62;100.00
11448;BME280;43755;49.736;8.734;2022-08-19T07:10:27;97628.59;;;20.87;100.00
11448;BME280;43755;49.736;8.734;2022-08-19T07:12:30;97622.84;;;21.01;100.00
11448;BME280;43755;49.736;8.734;2022-08-19T07:14:35;97622.91;;;21.20;100.00
11448;BME280;43755;49.736;8.734;2022-08-19T07:16:37;97618.22;;;21.22;100.00
11448;BME280;43755;49.736;8.734;2022-08-19T07:18:42;97620.75;;;21.33;100.00
11448;BME280;43755;49.736;8.734;2022-08-19T07:20:44;97619.06;;;21.42;100.00
11448;BME280;43755;49.736;8.734;2022-08-19T07:22:45;97615.78;;;21.57;100.00
11448;BME280;43755;49.736;8.734;2022-08-19T07:24:49;97608.97;;;21.63;100.00
11448;BME280;43755;49.736;8.734;2022-08-19T07:26:53;97612.25;;;21.67;100.00
11448;BME280;43755;49.736;8.734;2022-08-19T07:28:55;97617.06;;;21.63;100.00
11448;BME280;43755;49.736;8.734;2022-08-19T07:30:57;97615.34;;;21.62;100.00
11448;BME280;43755;49.736;8.734;2022-08-19T07:32:59;97621.03;;;21.69;100.00
11448;BME280;43755;49.736;8.734;2022-08-19T07:35:00;97623.13;;;21.75;100.00
11448;BME280;43755;49.736;8.734;2022-08-19T07:37:03;97623.03;;;21.47;100.00
11448;BME280;43755;49.736;8.734;2022-08-19T07:39:09;97611.50;;;21.74;100.00
11448;BME280;43755;49.736;8.734;2022-08-19T07:41:15;97621.16;;;21.77;100.00
11448;BME280;43755;49.736;8.734;2022-08-19T07:43:17;97630.22;;;21.56;100.00
11448;BME280;43755;49.736;8.734;2022-08-19T07:45:21;97623.44;;;21.62;100.00
11448;BME280;43755;49.736;8.734;2022-08-19T07:47:22;97627.13;;;21.51;100.00
11448;BME280;43755;49.736;8.734;2022-08-19T07:49:24;97632.81;;;21.29;100.00
11448;BME280;43755;49.736;8.734;2022-08-19T07:51:26;97625.44;;;21.31;100.00
11448;BME280;43755;49.736;8.734;2022-08-19T07:53:29;97629.41;;;21.46;100.00
11448;BME280;43755;49.736;8.734;2022-08-19T07:55:30;97619.91;;;21.61;100.00
11448;BME280;43755;49.736;8.734;2022-08-19T07:57:33;97625.72;;;21.67;100.00
11448;BME280;43755;49.736;8.734;2022-08-19T07:59:35;97625.16;;;21.73;100.00
11448;BME280;43755;49.736;8.734;2022-08-19T08:01:37;97625.13;;;21.82;100.00
11448;BME280;43755;49.736;8.734;2022-08-19T08:03:40;97630.06;;;22.06;100.00
11448;BME280;43755;49.736;8.734;2022-08-19T08:05:59;97635.72;;;22.13;100.00
11448;BME280;43755;49.736;8.734;2022-08-19T08:08:14;97627.78;;;22.11;100.00
11448;BME280;43755;49.736;8.734;2022-08-19T08:10:35;97634.00;;;22.12;100.00
11448;BME280;43755;49.736;8.734;2022-08-19T08:12:40;97629.66;;;22.01;100.00
11448;BME280;43755;49.736;8.734;2022-08-19T08:14:45;97628.44;;;22.23;100.00
11448;BME280;43755;49.736;8.734;2022-08-19T08:16:48;97633.56;;;22.26;100.00
11448;BME280;43755;49.736;8.734;2022-08-19T08:18:51;97631.13;;;22.60;100.00
11448;BME280;43755;49.736;8.734;2022-08-19T08:20:52;97628.38;;;22.79;100.00
11448;BME280;43755;49.736;8.734;2022-08-19T08:22:54;97627.72;;;22.95;99.55
11448;BME280;43755;49.736;8.734;2022-08-19T08:25:15;97624.66;;;22.80;97.23
11448;BME280;43755;49.736;8.734;2022-08-19T08:27:19;97621.16;;;22.79;97.91
11448;BME280;43755;49.736;8.734;2022-08-19T08:29:22;97626.16;;;22.65;95.77
11448;BME280;43755;49.736;8.734;2022-08-19T08:31:24;97626.78;;;22.49;97.33
11448;BME280;43755;49.736;8.734;2022-08-19T08:33:27;97632.00;;;22.51;98.49
11448;BME280;43755;49.736;8.734;2022-08-19T08:35:30;97633.97;;;22.31;96.13
11448;BME280;43755;49.736;8.734;2022-08-19T08:37:31;97640.63;;;22.27;97.38
11448;BME280;43755;49.736;8.734;2022-08-19T08:39:33;97631.00;;;22.61;96.34
11448;BME280;43755;49.736;8.734;2022-08-19T08:41:42;97622.34;;;22.58;95.19
11448;BME280;43755;49.736;8.734;2022-08-19T08:43:48;97620.97;;;22.81;94.96
11448;BME280;43755;49.736;8.734;2022-08-19T08:46:01;97615.16;;;23.03;96.69
11448;BME280;43755;49.736;8.734;2022-08-19T08:48:15;97628.66;;;23.21;95.33
11448;BME280;43755;49.736;8.734;2022-08-19T08:50:24;97625.50;;;23.08;92.40
11448;BME280;43755;49.736;8.734;2022-08-19T08:52:30;97627.84;;;23.20;91.98
11448;BME280;43755;49.736;8.734;2022-08-19T08:54:37;97632.38;;;23.20;92.79
11448;BME280;43755;49.736;8.734;2022-08-19T08:56:41;97636.72;;;23.03;90.93
11448;BME280;43755;49.736;8.734;2022-08-19T08:58:51;97636.59;;;23.05;91.97
11448;BME280;43755;49.736;8.734;2022-08-19T09:00:57;97638.53;;;23.12;89.02
11448;BME280;43755;49.736;8.734;2022-08-19T09:03:00;97635.13;;;23.28;92.05
11448;BME280;43755;49.736;8.734;2022-08-19T09:05:04;97631.81;;;23.16;89.28
11448;BME280;43755;49.736;8.734;2022-08-19T09:07:22;97638.00;;;23.09;88.99
11448;BME280;43755;49.736;8.734;2022-08-19T09:09:30;97645.84;;;23.02;89.67
11448;BME280;43755;49.736;8.734;2022-08-19T09:11:47;97647.63;;;23.11;86.70
11448;BME280;43755;49.736;8.734;2022-08-19T09:13:58;97641.47;;;23.19;85.20
11448;BME280;43755;49.736;8.734;2022-08-19T09:16:06;97641.34;;;23.38;85.01
11448;BME280;43755;49.736;8.734;2022-08-19T09:18:08;97640.28;;;23.49;86.52
11448;BME280;43755;49.736;8.734;2022-08-19T09:20:15;97639.53;;;23.82;85.71
11448;BME280;43755;49.736;8.734;2022-08-19T09:22:19;97633.00;;;23.85;80.56
11448;BME280;43755;49.736;8.734;2022-08-19T09:24:21;97633.03;;;23.93;80.28
11448;BME280;43755;49.736;8.734;2022-08-19T09:26:23;97638.50;;;24.01;78.41
11448;BME280;43755;49.736;8.734;2022-08-19T09:28:25;97628.97;;;23.89;81.41
11448;BME280;43755;49.736;8.734;2022-08-19T09:30:30;97641.25;;;23.83;78.64
11448;BME280;43755;49.736;8.734;2022-08-19T09:32:33;97625.00;;;24.01;78.28
11448;BME280;43755;49.736;8.734;2022-08-19T09:34:34;97623.44;;;24.42;79.54
11448;BME280;43755;49.736;8.734;2022-08-19T09:36:36;97619.50;;;24.70;75.98
11448;BME280;43755;49.736;8.734;2022-08-19T09:38:39;97631.00;;;24.72;71.32
11448;BME280;43755;49.736;8.734;2022-08-19T09:40:41;97630.31;;;24.70;72.63
11448;BME280;43755;49.736;8.734;2022-08-19T09:42:43;97628.16;;;24.74;75.37
11448;BME280;43755;49.736;8.734;2022-08-19T09:44:45;97621.84;;;24.65;70.98
11448;BME280;43755;49.736;8.734;2022-08-19T09:46:47;97618.25;;;24.57;69.89
11448;BME280;43755;49.736;8.734;2022-08-19T09:48:50;97633.91;;;24.45;71.45
11448;BME280;43755;49.736;8.734;2022-08-19T09:50:52;97620.22;;;24.38;71.68
11448;BME280;43755;49.736;8.734;2022-08-19T09:52:54;97621.59;;;24.51;71.75
11448;BME280;43755;49.736;8.734;2022-08-19T09:54:57;97633.88;;;24.37;67.79
11448;BME280;43755;49.736;8.734;2022-08-19T09:56:59;97635.53;;;24.30;70.19
11448;BME280;43755;49.736;8.734;2022-08-19T09:59:02;97628.88;;;24.50;68.33
11448;BME280;43755;49.736;8.734;2022-08-19T10:01:06;97635.03;;;24.68;67.17
11448;BME280;43755;49.736;8.734;2022-08-19T10:03:08;97627.00;;;24.84;67.28
11448;BME280;43755;49.736;8.734;2022-08-19T10:05:10;97624.34;;;24.93;70.19
11448;BME280;43755;49.736;8.734;2022-08-19T10:07:38;97627.31;;;24.81;66.25
11448;BME280;43755;49.736;8.734;2022-08-19T10:09:39;97630.81;;;24.66;70.06
11448;BME280;43755;49.736;8.734;2022-08-19T10:11:43;97624.84;;;24.54;67.76
11448;BME280;43755;49.736;8.734;2022-08-19T10:13:46;97625.97;;;24.43;68.13
11448;BME280;43755;49.736;8.734;2022-08-19T10:15:49;97631.03;;;24.38;70.75
11448;BME280;43755;49.736;8.734;2022-08-19T10:17:55;97632.47;;;24.33;69.25
11448;BME280;43755;49.736;8.734;2022-08-19T10:20:00;97642.41;;;24.50;71.64
11448;BME280;43755;49.736;8.734;2022-08-19T10:22:05;97635.97;;;24.51;71.60
11448;BME280;43755;49.736;8.734;2022-08-19T10:24:07;97622.66;;;24.58;69.37
11448;BME280;43755;49.736;8.734;2022-08-19T10:26:09;97626.97;;;24.76;72.32
11448;BME280;43755;49.736;8.734;2022-08-19T10:28:10;97622.03;;;24.72;68.70
11448;BME280;43755;49.736;8.734;2022-08-19T10:30:13;97632.16;;;24.70;68.60
11448;BME280;43755;49.736;8.734;2022-08-19T10:32:15;97630.72;;;24.83;68.42
11448;BME280;43755;49.736;8.734;2022-08-19T10:34:16;97633.88;;;25.13;66.59
11448;BME280;43755;49.736;8.734;2022-08-19T10:36:20;97637.41;;;24.97;64.36
11448;BME280;43755;49.736;8.734;2022-08-19T10:38:23;97633.25;;;24.85;66.02
11448;BME280;43755;49.736;8.734;2022-08-19T10:40:25;97632.03;;;25.21;64.91
11448;BME280;43755;49.736;8.734;2022-08-19T10:42:27;97632.34;;;25.10;64.93
11448;BME280;43755;49.736;8.734;2022-08-19T10:44:31;97621.91;;;24.81;66.73
11448;BME280;43755;49.736;8.734;2022-08-19T10:46:35;97627.59;;;24.70;67.92
11448;BME280;43755;49.736;8.734;2022-08-19T10:48:37;97626.47;;;24.81;66.85